Time;durP1;ratioP1;P1;durP2;ratioP2;P2;SDS_P1;SDS_P2;PMS_P1;PMS_P2;Temp;Humidity;BMP_temperature;BMP_pressure;BME280_temperature;BME280_humidity;BME280_pressure;Samples;Min_cycle;Max_cycle;Signal;HPM_P1;HPM_P2
2022/06/27 00:02:24;;;;;;;10.43;9.30;;;;;;;16.58;88.49;101456.19;5010651;28;20386;-82
2022/06/27 00:04:50;;;;;;;14.00;10.13;;;;;;;16.58;88.94;101434.94;5018934;28;20044;-82
2022/06/27 00:07:16;;;;;;;11.63;9.90;;;;;;;16.63;88.73;101443.34;5032307;28;20394;-82
2022/06/27 00:09:42;;;;;;;11.75;10.45;;;;;;;16.63;88.73;101443.34;5031601;28;20020;-81
2022/06/27 00:12:08;;;;;;;11.10;10.00;;;;;;;16.61;88.81;101445.31;5029330;28;21244;-81
2022/06/27 00:14:44;;;;;;;13.63;9.70;;;;;;;16.64;89.09;101455.66;5010941;28;20104;-81
2022/06/27 00:17:09;;;;;;;13.98;10.30;;;;;;;16.61;89.39;101450.63;5012088;28;20144;-81
2022/06/27 00:19:35;;;;;;;12.55;9.07;;;;;;;16.61;89.53;101450.63;5012891;28;20026;-81
2022/06/27 00:22:00;;;;;;;10.88;9.18;;;;;;;16.60;89.40;101452.44;5020377;28;20013;-81
2022/06/27 00:24:25;;;;;;;11.63;9.50;;;;;;;16.57;89.52;101450.06;5032335;28;20026;-82
2022/06/27 00:26:51;;;;;;;12.15;10.23;;;;;;;16.58;90.40;101459.69;5040217;28;20426;-82
2022/06/27 00:29:16;;;;;;;15.95;10.10;;;;;;;16.54;89.37;101466.25;5012529;28;20528;-82
2022/06/27 00:31:45;;;;;;;14.73;10.35;;;;;;;16.60;88.80;101475.50;5007502;28;20030;-82
2022/06/27 00:34:10;;;;;;;12.18;9.73;;;;;;;16.59;88.72;101463.19;5012556;28;20030;-82
2022/06/27 00:36:35;;;;;;;14.60;10.57;;;;;;;16.55;89.00;101465.28;5027247;28;20438;-82
2022/06/27 00:39:01;;;;;;;14.20;11.00;;;;;;;16.57;88.51;101459.84;5010891;28;20036;-82
2022/06/27 00:41:26;;;;;;;11.82;10.63;;;;;;;16.57;89.14;101471.31;5027677;28;20542;-82
2022/06/27 00:43:51;;;;;;;14.05;10.10;;;;;;;16.64;88.85;101481.38;5011280;28;20026;-82
2022/06/27 00:46:18;;;;;;;13.50;10.00;;;;;;;16.60;88.86;101478.16;5012296;28;20052;-80
2022/06/27 00:48:43;;;;;;;12.20;10.18;;;;;;;16.61;88.41;101478.03;5003575;28;20080;-80
2022/06/27 00:51:09;;;;;;;13.45;9.70;;;;;;;16.61;88.38;101478.03;4992053;28;20471;-81
2022/06/27 00:53:34;;;;;;;11.48;9.55;;;;;;;16.66;88.44;101474.97;5009895;28;20030;-80
2022/06/27 00:56:01;;;;;;;13.25;9.65;;;;;;;16.74;88.03;101487.56;5010441;28;20081;-80
2022/06/27 00:58:27;;;;;;;11.52;9.40;;;;;;;16.75;87.94;101476.81;5010690;28;20024;-81
2022/06/27 01:00:53;;;;;;;14.52;9.55;;;;;;;16.79;87.75;101482.69;5010888;28;20432;-80
2022/06/27 01:03:18;;;;;;;13.73;9.27;;;;;;;16.83;87.98;101489.44;5008092;28;20046;-81
2022/06/27 01:05:54;;;;;;;14.00;9.90;;;;;;;16.84;87.54;101485.78;5016254;28;20167;-80
2022/06/27 01:08:23;;;;;;;14.63;10.27;;;;;;;16.77;87.87;101482.81;5023559;28;20468;-81
2022/06/27 01:10:52;;;;;;;12.50;9.38;;;;;;;16.82;87.89;101480.63;5012603;28;20324;-80
2022/06/27 01:13:18;;;;;;;14.15;9.70;;;;;;;16.84;87.45;101489.28;4996449;28;20025;-81
2022/06/27 01:15:45;;;;;;;10.93;9.50;;;;;;;16.81;86.98;101494.88;5021748;28;20041;-80
2022/06/27 01:18:12;;;;;;;12.82;10.32;;;;;;;16.85;86.93;101490.97;5012848;28;20029;-80
2022/06/27 01:20:41;;;;;;;13.52;10.25;;;;;;;16.85;86.68;101493.63;5017791;28;20040;-80
2022/06/27 01:23:07;;;;;;;14.75;9.85;;;;;;;16.83;87.45;101492.94;5025829;28;20056;-80
2022/06/27 01:25:35;;;;;;;12.27;10.55;;;;;;;16.85;86.73;101495.44;5016327;28;20029;-77
2022/06/27 01:28:01;;;;;;;14.60;10.40;;;;;;;16.80;86.84;101487.84;5021967;28;20028;-80
2022/06/27 01:30:27;;;;;;;11.52;10.18;;;;;;;16.82;86.76;101488.59;5019609;28;20030;-80
2022/06/27 01:32:52;;;;;;;14.57;10.45;;;;;;;16.80;86.56;101471.91;5028321;28;20394;-80
2022/06/27 01:35:18;;;;;;;15.80;9.68;;;;;;;16.84;87.00;101477.81;5014228;28;20064;-80
2022/06/27 01:37:47;;;;;;;11.68;10.23;;;;;;;16.81;86.94;101473.63;5024464;28;20032;-80
2022/06/27 01:40:14;;;;;;;13.00;10.32;;;;;;;16.80;86.34;101458.63;5022484;28;20044;-80
2022/06/27 01:42:39;;;;;;;11.60;10.45;;;;;;;16.78;86.66;101452.59;5016577;28;20022;-81
2022/06/27 01:45:05;;;;;;;12.70;10.00;;;;;;;16.74;87.94;101451.22;5022345;28;20386;-80
2022/06/27 01:47:31;;;;;;;13.05;9.95;;;;;;;16.75;88.67;101436.09;5017250;28;20029;-80
2022/06/27 01:49:56;;;;;;;10.90;9.55;;;;;;;16.74;88.91;101451.22;5022348;28;20021;-81
2022/06/27 01:52:22;;;;;;;10.35;8.98;;;;;;;16.69;89.71;101447.28;5023796;28;20032;-80
2022/06/27 01:54:48;;;;;;;12.73;9.30;;;;;;;16.70;89.34;101449.81;5013541;28;20028;-80
2022/06/27 01:57:16;;;;;;;12.02;9.20;;;;;;;16.68;89.89;101450.94;5028153;28;20494;-80
2022/06/27 01:59:44;;;;;;;11.38;10.00;;;;;;;16.67;90.24;101444.78;5020048;28;20025;-80
2022/06/27 02:02:12;;;;;;;10.18;9.07;;;;;;;16.67;90.25;101439.47;5019281;28;20022;-80
2022/06/27 02:04:37;;;;;;;11.38;9.65;;;;;;;16.69;90.48;101441.97;5002128;28;20041;-80
2022/06/27 02:07:05;;;;;;;11.88;10.10;;;;;;;16.66;90.79;101437.78;5005303;28;20026;-80
2022/06/27 02:09:30;;;;;;;11.50;9.70;;;;;;;16.67;91.04;101433.31;5009852;28;20425;-80
2022/06/27 02:11:56;;;;;;;11.32;10.15;;;;;;;16.66;90.98;101432.47;5010772;28;20041;-80
2022/06/27 02:14:22;;;;;;;15.93;11.00;;;;;;;16.63;91.55;101426.56;5010279;28;20073;-79
2022/06/27 02:16:48;;;;;;;14.70;11.40;;;;;;;16.62;91.45;101431.03;5024207;28;20026;-80
2022/06/27 02:19:19;;;;;;;14.30;12.05;;;;;;;16.55;91.17;101429.91;5025889;28;20028;-80
2022/06/27 02:21:45;;;;;;;16.75;12.38;;;;;;;16.51;90.65;101431.16;5011002;28;20055;-81
2022/06/27 02:24:12;;;;;;;12.70;11.27;;;;;;;16.53;91.57;101413.28;5013089;28;20027;-83
2022/06/27 02:26:38;;;;;;;12.43;10.32;;;;;;;16.54;91.96;101414.94;5021113;28;20056;-80
2022/06/27 02:29:05;;;;;;;14.45;11.05;;;;;;;16.52;91.57;101414.25;5020938;28;20405;-80
2022/06/27 02:31:31;;;;;;;15.13;11.50;;;;;;;16.53;91.57;101410.63;5029000;28;20079;-81
2022/06/27 02:33:57;;;;;;;14.70;11.90;;;;;;;16.51;91.28;101417.88;5026657;28;20018;-81
2022/06/27 02:36:36;;;;;;;13.70;12.23;;;;;;;16.52;91.66;101415.09;5013852;28;20601;-81
2022/06/27 02:39:07;;;;;;;14.27;12.40;;;;;;;16.45;91.61;101423.75;5013281;28;20433;-80
2022/06/27 02:41:39;;;;;;;14.93;12.75;;;;;;;16.43;91.78;101409.78;5024181;28;20367;-80
2022/06/27 02:44:10;;;;;;;16.08;13.60;;;;;;;16.38;91.95;101414.63;4997464;28;20096;-81
2022/06/27 02:46:35;;;;;;;15.38;12.63;;;;;;;16.34;92.20;101405.25;5009757;28;20397;-80
2022/06/27 02:49:02;;;;;;;18.73;12.55;;;;;;;16.32;92.84;101402.75;5021331;28;20033;-80
2022/06/27 02:51:35;;;;;;;16.35;12.52;;;;;;;16.33;92.86;101403.59;5013995;28;20042;-81
2022/06/27 02:54:09;;;;;;;15.65;13.18;;;;;;;16.29;93.29;101387.91;5015304;28;20021;-79
2022/06/27 02:56:41;;;;;;;15.15;12.35;;;;;;;16.34;93.24;101394.63;5037010;28;20029;-79
2022/06/27 02:59:10;;;;;;;13.65;11.73;;;;;;;16.35;93.43;101383.03;5011585;28;20023;-81
2022/06/27 03:01:38;;;;;;;16.10;12.15;;;;;;;16.26;93.86;101376.72;5010597;28;20026;-80
2022/06/27 03:04:07;;;;;;;15.45;11.82;;;;;;;16.25;93.53;101369.75;5011474;28;20045;-81
2022/06/27 03:06:32;;;;;;;14.02;12.05;;;;;;;16.15;94.31;101364.44;5014481;28;20225;-81
2022/06/27 03:08:58;;;;;;;17.02;12.45;;;;;;;16.15;94.37;101361.78;5010046;28;20021;-81
2022/06/27 03:11:24;;;;;;;15.80;12.70;;;;;;;16.12;94.46;101369.16;5012133;28;20566;-81
2022/06/27 03:13:52;;;;;;;13.93;12.50;;;;;;;16.08;94.25;101368.59;5035653;28;20073;-80
2022/06/27 03:16:19;;;;;;;14.25;12.02;;;;;;;16.05;94.70;101370.69;5009054;28;20095;-78
2022/06/27 03:18:45;;;;;;;15.52;11.95;;;;;;;16.10;94.61;101374.63;5015511;28;20380;-81
2022/06/27 03:21:11;;;;;;;13.20;11.90;;;;;;;16.01;94.52;101377.22;5016137;28;20084;-81
2022/06/27 03:23:38;;;;;;;16.23;12.63;;;;;;;15.96;94.86;101382.94;5024962;28;20390;-81
2022/06/27 03:26:03;;;;;;;15.95;12.38;;;;;;;15.93;95.16;101377.91;4996166;28;20068;-81
2022/06/27 03:28:29;;;;;;;14.25;12.80;;;;;;;15.87;95.05;101375.78;5021368;28;20049;-81
2022/06/27 03:30:55;;;;;;;16.80;13.10;;;;;;;15.79;95.01;101368.50;5009045;28;20028;-81
2022/06/27 03:33:20;;;;;;;15.68;12.98;;;;;;;15.80;95.33;101374.66;5008632;28;20036;-80
2022/06/27 03:35:46;;;;;;;15.52;12.70;;;;;;;15.75;95.37;101371.56;5011453;28;20036;-81
2022/06/27 03:38:12;;;;;;;14.02;12.23;;;;;;;15.76;95.08;101373.25;5013107;28;20065;-81
2022/06/27 03:40:38;;;;;;;14.10;12.60;;;;;;;15.70;94.68;101379.09;5005583;28;20030;-81
2022/06/27 03:43:03;;;;;;;14.50;12.57;;;;;;;15.63;94.88;101368.19;5012850;28;20056;-81
2022/06/27 03:45:29;;;;;;;13.15;11.85;;;;;;;15.59;95.20;101372.88;5012710;28;20057;-83
2022/06/27 03:48:02;;;;;;;14.60;12.32;;;;;;;15.56;95.34;101367.81;5012428;28;20056;-81
2022/06/27 03:50:31;;;;;;;15.02;13.43;;;;;;;15.54;95.28;101375.06;5013325;28;20061;-81
2022/06/27 03:52:56;;;;;;;16.17;13.65;;;;;;;15.47;95.90;101373.91;5013654;28;20021;-82
2022/06/27 03:55:25;;;;;;;15.18;13.57;;;;;;;15.46;95.66;101382.84;5012039;28;20452;-81
2022/06/27 03:57:56;;;;;;;14.52;13.02;;;;;;;15.41;96.41;101384.22;5002709;28;20052;-81
2022/06/27 04:00:32;;;;;;;15.00;13.40;;;;;;;15.41;96.80;101387.72;5007348;28;20076;-81
2022/06/27 04:02:59;;;;;;;18.55;13.75;;;;;;;15.34;96.86;101399.81;5008298;28;20025;-81
2022/06/27 04:05:24;;;;;;;16.55;13.85;;;;;;;15.34;97.51;101405.13;5009853;28;20087;-81
2022/06/27 04:07:50;;;;;;;17.58;14.13;;;;;;;15.39;97.86;101396.78;5005399;28;20057;-81
2022/06/27 04:10:15;;;;;;;19.00;15.40;;;;;;;15.60;99.79;101382.53;5025167;28;20036;-81
2022/06/27 04:12:41;;;;;;;18.08;14.25;;;;;;;16.41;96.00;101380.69;5017086;28;20108;-81
2022/06/27 04:15:08;;;;;;;17.45;12.60;;;;;;;17.64;89.41;101388.81;5013863;28;20045;-81
2022/06/27 04:17:33;;;;;;;18.02;11.48;;;;;;;18.60;84.19;101382.97;5006392;28;20092;-81
2022/06/27 04:19:59;;;;;;;15.45;11.32;;;;;;;19.17;80.46;101372.78;5020208;28;20038;-81
2022/06/27 04:22:24;;;;;;;12.82;10.70;;;;;;;19.33;79.57;101358.72;5018531;28;20037;-81
2022/06/27 04:24:50;;;;;;;14.75;10.55;;;;;;;19.19;79.19;101360.09;5019090;28;20492;-81
2022/06/27 04:27:17;;;;;;;12.68;11.38;;;;;;;18.92;80.51;101347.78;5026325;28;20056;-81
2022/06/27 04:29:43;;;;;;;12.80;10.90;;;;;;;18.72;81.59;101348.94;5002774;28;20072;-81
2022/06/27 04:32:09;;;;;;;14.88;11.50;;;;;;;18.50;82.07;101341.38;5013980;28;20030;-81
2022/06/27 04:34:35;;;;;;;15.82;11.45;;;;;;;18.39;82.79;101337.09;5013194;28;20032;-81
2022/06/27 04:37:03;;;;;;;20.38;11.88;;;;;;;18.22;84.09;101317.47;5019989;28;20033;-81
2022/06/27 04:39:32;;;;;;;19.95;12.10;;;;;;;17.99;85.19;101311.72;5019510;28;20061;-81
2022/06/27 04:41:58;;;;;;;27.67;13.80;;;;;;;17.56;86.19;101320.34;5004435;28;20036;-81
2022/06/27 04:44:23;;;;;;;17.88;13.60;;;;;;;17.34;87.80;101316.25;5017778;28;20100;-81
2022/06/27 04:46:49;;;;;;;15.88;14.18;;;;;;;17.31;87.58;101327.19;5013848;28;20109;-81
2022/06/27 04:49:16;;;;;;;19.15;15.10;;;;;;;17.14;87.90;101325.25;5021633;28;20021;-82
2022/06/27 04:51:43;;;;;;;24.65;15.23;;;;;;;17.16;88.67;101324.13;5006685;28;20057;-81
2022/06/27 04:54:10;;;;;;;17.02;15.20;;;;;;;17.14;88.81;101342.03;5010642;28;20058;-81
2022/06/27 04:56:42;;;;;;;19.85;15.60;;;;;;;17.09;88.84;101346.13;5010182;28;20133;-81
2022/06/27 04:59:08;;;;;;;17.25;15.40;;;;;;;17.11;88.96;101338.84;5011864;28;20134;-82
2022/06/27 05:01:36;;;;;;;20.85;15.60;;;;;;;17.04;89.05;101341.25;5011099;28;20057;-81
2022/06/27 05:04:02;;;;;;;38.05;16.83;;;;;;;16.83;89.80;101336.13;5012238;28;20363;-81
2022/06/27 05:06:27;;;;;;;22.70;15.52;;;;;;;16.85;90.46;101333.31;5030673;28;20056;-82
2022/06/27 05:08:53;;;;;;;27.75;15.77;;;;;;;16.78;91.26;101327.69;5031713;28;20048;-81
2022/06/27 05:11:19;;;;;;;22.60;16.48;;;;;;;16.68;92.50;101316.25;5031337;28;20493;-81
2022/06/27 05:13:44;;;;;;;24.25;16.27;;;;;;;16.71;92.17;101313.31;5012566;28;20025;-81
2022/06/27 05:16:10;;;;;;;23.52;15.32;;;;;;;16.68;92.51;101313.59;5011726;28;20266;-81
2022/06/27 05:18:35;;;;;;;24.80;15.73;;;;;;;16.64;92.78;101317.47;5010776;28;20026;-81
2022/06/27 05:21:01;;;;;;;24.65;16.65;;;;;;;16.61;93.27;101328.41;5011988;28;20045;-81
2022/06/27 05:23:26;;;;;;;28.00;15.90;;;;;;;16.66;92.96;101334.16;5030574;28;20068;-80
2022/06/27 05:25:51;;;;;;;24.48;16.90;;;;;;;16.58;93.15;101334.00;5030634;28;20029;-81
2022/06/27 05:28:17;;;;;;;21.58;17.27;;;;;;;16.60;93.52;101332.03;5030769;28;20032;-81
2022/06/27 05:30:42;;;;;;;22.70;17.95;;;;;;;16.53;93.71;101330.91;5016482;28;20562;-81
2022/06/27 05:33:08;;;;;;;19.75;16.88;;;;;;;16.58;94.05;101350.78;5010668;28;20053;-82
2022/06/27 05:35:33;;;;;;;19.83;17.40;;;;;;;16.57;94.39;101380.13;5010886;28;20058;-81
2022/06/27 05:37:59;;;;;;;22.58;17.40;;;;;;;16.58;94.09;101400.41;5009006;28;20021;-81
2022/06/27 05:40:25;;;;;;;19.77;17.67;;;;;;;16.57;94.13;101414.66;5020219;28;20030;-82
2022/06/27 05:42:53;;;;;;;24.45;17.80;;;;;;;16.67;94.38;101428.84;5026208;28;20049;-81
2022/06/27 05:45:18;;;;;;;23.77;17.35;;;;;;;16.65;94.77;101441.38;5015579;28;20091;-81
2022/06/27 05:47:44;;;;;;;26.65;18.10;;;;;;;16.60;94.75;101427.69;5019936;28;20470;-81
2022/06/27 05:50:09;;;;;;;23.50;17.40;;;;;;;16.67;94.36;101450.09;5012382;28;20030;-81
2022/06/27 05:52:39;;;;;;;21.95;18.67;;;;;;;16.68;94.77;101462.41;5025290;28;20112;-83
2022/06/27 05:55:05;;;;;;;19.30;17.38;;;;;;;16.67;94.75;101466.03;5011079;28;20394;-82
2022/06/27 05:57:31;;;;;;;20.85;18.33;;;;;;;16.63;95.06;101459.28;5023401;28;20108;-81
2022/06/27 05:59:58;;;;;;;27.02;18.45;;;;;;;16.70;94.28;101452.47;5019377;28;20117;-81
2022/06/27 06:02:25;;;;;;;22.67;18.52;;;;;;;16.71;94.85;101461.28;5010166;28;20030;-81
2022/06/27 06:04:51;;;;;;;21.17;19.05;;;;;;;16.67;94.64;101444.78;5028263;28;20037;-81
2022/06/27 06:07:18;;;;;;;23.60;18.67;;;;;;;16.65;94.97;101425.44;5025852;28;20022;-82
2022/06/27 06:09:44;;;;;;;23.17;18.23;;;;;;;16.69;94.59;101426.88;5011009;28;20017;-82
2022/06/27 06:12:11;;;;;;;21.42;19.17;;;;;;;16.70;95.20;101428.56;5010909;28;20036;-82
2022/06/27 06:14:38;;;;;;;23.27;19.52;;;;;;;16.75;93.50;101430.78;5009438;28;20412;-81
2022/06/27 06:17:04;;;;;;;26.13;19.20;;;;;;;16.72;93.61;101431.06;5011441;28;20404;-82
2022/06/27 06:19:31;;;;;;;21.63;19.33;;;;;;;16.76;93.35;101437.78;5010194;28;20442;-81
2022/06/27 06:21:57;;;;;;;23.10;19.63;;;;;;;16.72;94.75;101453.16;5012611;28;20030;-81
2022/06/27 06:24:24;;;;;;;22.70;19.60;;;;;;;16.76;94.75;101473.16;5011232;28;20426;-81
2022/06/27 06:26:53;;;;;;;23.20;19.20;;;;;;;16.76;95.18;101488.28;5011096;28;20097;-81
2022/06/27 06:29:21;;;;;;;23.27;19.42;;;;;;;16.82;95.45;101477.97;5010224;28;20030;-82
2022/06/27 06:31:46;;;;;;;26.05;20.70;;;;;;;16.84;95.53;101470.69;5009767;28;20072;-82
2022/06/27 06:34:13;;;;;;;23.90;20.50;;;;;;;16.89;95.21;101471.09;5010865;28;20421;-82
2022/06/27 06:36:40;;;;;;;25.35;21.80;;;;;;;16.84;95.65;101468.03;5008953;28;20034;-81
2022/06/27 06:39:09;;;;;;;25.77;22.13;;;;;;;16.78;96.08;101452.59;5018591;28;20082;-81
2022/06/27 06:41:44;;;;;;;25.83;21.38;;;;;;;16.89;95.49;101436.56;5012920;28;20072;-81
2022/06/27 06:44:10;;;;;;;24.27;21.67;;;;;;;16.86;95.60;101420.88;5021727;28;20080;-81
2022/06/27 06:46:35;;;;;;;27.52;21.95;;;;;;;16.89;95.41;101404.66;5013563;28;20042;-81
2022/06/27 06:49:06;;;;;;;24.50;21.73;;;;;;;16.94;95.49;101398.06;5011208;28;20013;-82
2022/06/27 06:51:37;;;;;;;25.17;21.40;;;;;;;16.94;95.40;101403.38;5010418;28;20083;-81
2022/06/27 06:54:07;;;;;;;29.25;21.50;;;;;;;16.93;94.59;101402.56;5006347;28;20028;-82
2022/06/27 06:56:34;;;;;;;23.65;21.23;;;;;;;16.99;93.64;101391.34;5012921;28;20049;-81
2022/06/27 06:59:01;;;;;;;30.33;21.48;;;;;;;17.07;93.70;101385.31;5011150;28;20025;-81
2022/06/27 07:01:31;;;;;;;33.17;22.45;;;;;;;17.14;92.87;101408.53;5015686;28;20486;-81
2022/06/27 07:04:03;;;;;;;26.08;21.65;;;;;;;17.27;93.46;101413.56;5014627;28;20066;-81
2022/06/27 07:06:32;;;;;;;28.95;21.08;;;;;;;17.38;92.22;101413.41;5003282;28;20020;-82
2022/06/27 07:09:00;;;;;;;27.05;20.40;;;;;;;17.47;91.73;101401.88;4998676;28;20435;-81
2022/06/27 07:11:31;;;;;;;23.95;21.55;;;;;;;17.53;92.07;101385.34;5024333;28;20029;-81
2022/06/27 07:13:58;;;;;;;23.58;21.17;;;;;;;17.59;92.26;101389.22;5022373;28;20026;-81
2022/06/27 07:16:24;;;;;;;24.70;22.25;;;;;;;17.59;92.77;101393.72;5019448;28;20076;-82
2022/06/27 07:18:49;;;;;;;28.05;21.80;;;;;;;17.61;93.30;101402.38;5012097;28;20030;-82
2022/06/27 07:21:16;;;;;;;21.98;19.92;;;;;;;17.69;92.54;101415.88;5024605;28;20104;-81
2022/06/27 07:23:42;;;;;;;22.38;20.08;;;;;;;17.70;92.67;101422.88;5022831;28;20509;-82
2022/06/27 07:26:09;;;;;;;22.95;19.50;;;;;;;17.82;92.19;101437.66;5021512;28;20030;-82
2022/06/27 07:28:34;;;;;;;20.92;18.80;;;;;;;17.90;91.31;101445.75;5006243;28;20018;-82
2022/06/27 07:31:01;;;;;;;25.65;19.85;;;;;;;17.98;90.87;101432.53;5004230;28;20057;-82
2022/06/27 07:33:27;;;;;;;23.65;19.75;;;;;;;17.97;90.76;101425.53;5012748;28;20028;-81
2022/06/27 07:35:53;;;;;;;23.15;19.75;;;;;;;18.19;90.66;101434.13;5013972;28;20117;-81
2022/06/27 07:38:20;;;;;;;19.83;17.73;;;;;;;18.39;89.15;101435.69;5021883;28;20038;-82
2022/06/27 07:40:46;;;;;;;18.05;15.30;;;;;;;18.50;87.68;101438.16;5010160;28;20022;-82
2022/06/27 07:43:14;;;;;;;16.00;14.15;;;;;;;18.62;85.09;101452.97;5012243;28;20421;-82
2022/06/27 07:45:40;;;;;;;17.55;13.55;;;;;;;18.76;83.77;101451.59;5012716;28;20025;-83
2022/06/27 07:48:07;;;;;;;15.63;12.95;;;;;;;18.92;83.42;101434.94;5012484;28;20021;-83
2022/06/27 07:50:37;;;;;;;13.95;12.48;;;;;;;19.05;82.88;101443.38;5012577;28;20429;-83
2022/06/27 07:53:17;;;;;;;14.68;11.05;;;;;;;19.03;79.54;101450.69;5012668;28;20034;-82
2022/06/27 07:55:54;;;;;;;15.30;11.13;;;;;;;19.03;80.05;101461.38;5010125;28;20022;-83
2022/06/27 07:58:30;;;;;;;14.82;10.93;;;;;;;18.90;79.36;101460.94;5013886;28;20471;-82
2022/06/27 08:00:58;;;;;;;13.15;10.27;;;;;;;18.92;78.97;101474.94;5021281;28;20036;-83
2022/06/27 08:06:10;;;;;;;13.02;10.98;;;;;;;18.98;78.83;101475.16;5021843;28;20045;-79
2022/06/27 08:08:39;;;;;;;11.90;10.52;;;;;;;19.05;79.68;101467.38;5027176;28;20378;-81
2022/06/27 08:11:07;;;;;;;12.75;10.27;;;;;;;19.08;77.90;101469.75;5018829;28;20021;-80
2022/06/27 08:13:35;;;;;;;11.93;9.80;;;;;;;19.23;77.91;101483.41;5012044;28;20060;-81
2022/06/27 08:16:02;;;;;;;13.90;9.98;;;;;;;19.25;76.08;101471.56;5027742;28;20127;-81
2022/06/27 08:18:31;;;;;;;13.98;10.60;;;;;;;19.27;76.53;101458.06;5015863;28;20421;-80
2022/06/27 08:21:00;;;;;;;10.80;9.35;;;;;;;19.32;76.86;101458.44;5011788;28;20025;-80
2022/06/27 08:23:31;;;;;;;14.95;9.80;;;;;;;19.38;77.96;101466.66;5013332;28;20394;-80
2022/06/27 08:25:56;;;;;;;11.18;10.05;;;;;;;19.31;76.62;101470.13;5016829;28;20025;-81
2022/06/27 08:28:23;;;;;;;12.85;9.63;;;;;;;19.35;76.72;101476.81;5015141;28;20014;-80
2022/06/27 08:30:50;;;;;;;12.18;9.88;;;;;;;19.24;76.59;101485.91;5013377;28;20323;-80
2022/06/27 08:33:16;;;;;;;17.42;10.57;;;;;;;19.16;78.01;101490.31;5016577;28;20029;-80
2022/06/27 08:35:47;;;;;;;12.80;10.85;;;;;;;19.14;78.60;101492.28;5012228;28;20033;-80
2022/06/27 08:38:18;;;;;;;15.95;10.68;;;;;;;19.10;78.99;101495.28;5025878;28;20037;-81
2022/06/27 08:40:45;;;;;;;13.88;10.23;;;;;;;19.09;79.19;101493.59;5024419;28;20213;-79
2022/06/27 08:43:11;;;;;;;13.50;11.07;;;;;;;19.07;78.53;101492.06;5019978;28;20033;-79
2022/06/27 08:45:37;;;;;;;11.80;10.30;;;;;;;19.04;80.76;101495.88;5018693;28;20038;-81
2022/06/27 08:48:07;;;;;;;13.13;11.43;;;;;;;19.11;79.49;101496.13;5028273;28;20052;-80
2022/06/27 08:50:35;;;;;;;15.35;12.57;;;;;;;19.04;79.71;101492.38;4998856;28;20481;-81
2022/06/27 08:53:02;;;;;;;13.43;11.75;;;;;;;19.00;79.76;101493.69;5024311;28;20540;-81
2022/06/27 08:55:33;;;;;;;16.05;12.20;;;;;;;18.97;78.94;101499.31;5023362;28;20068;-80
2022/06/27 08:58:04;;;;;;;13.30;11.98;;;;;;;19.04;80.53;101501.22;5014687;28;20036;-80
2022/06/27 09:00:32;;;;;;;16.63;13.75;;;;;;;19.05;80.49;101502.06;5028119;28;20017;-81
2022/06/27 09:02:58;;;;;;;15.00;13.45;;;;;;;19.15;79.41;101510.81;5018121;28;20037;-80
2022/06/27 09:05:26;;;;;;;15.07;13.45;;;;;;;19.17;79.18;101532.84;5029900;28;20389;-80
2022/06/27 09:07:54;;;;;;;15.52;13.35;;;;;;;19.28;78.79;101529.97;5016798;28;20030;-80
2022/06/27 09:10:32;;;;;;;13.57;12.18;;;;;;;19.36;78.61;101511.34;5027864;28;20017;-80
2022/06/27 09:13:02;;;;;;;17.55;13.60;;;;;;;19.41;78.34;101524.22;5007510;28;20618;-81
2022/06/27 09:15:45;;;;;;;14.90;12.85;;;;;;;19.52;77.88;101507.13;5003944;28;20056;-81
2022/06/27 09:18:11;;;;;;;16.88;13.00;;;;;;;19.67;78.00;101497.59;5008123;28;20034;-80
2022/06/27 09:20:47;;;;;;;15.95;12.68;;;;;;;19.86;76.98;101491.19;4998834;28;20049;-80
2022/06/27 09:23:49;;;;;;;15.65;11.63;;;;;;;19.96;76.66;101502.59;5002431;28;20045;-79
2022/06/27 09:26:21;;;;;;;12.87;11.57;;;;;;;19.95;75.24;101515.13;5024787;28;20021;-80
2022/06/27 09:28:54;;;;;;;14.60;11.98;;;;;;;20.15;74.09;101514.91;5003963;28;20374;-80
2022/06/27 09:31:30;;;;;;;14.50;10.57;;;;;;;20.09;74.13;101515.56;4997037;28;20674;-80
2022/06/27 09:34:01;;;;;;;11.90;10.55;;;;;;;20.07;73.39;101515.72;5004529;28;20018;-80
2022/06/27 09:36:29;;;;;;;10.40;8.50;;;;;;;20.05;70.84;101509.69;5007562;28;20110;-80
2022/06/27 09:38:56;;;;;;;11.65;8.27;;;;;;;20.26;71.60;101503.94;4999563;28;20075;-79
2022/06/27 09:41:26;;;;;;;11.35;7.07;;;;;;;20.38;69.94;101499.13;4996835;28;20022;-79
2022/06/27 09:43:52;;;;;;;7.80;6.00;;;;;;;20.58;68.48;101500.59;5022146;28;20113;-79
2022/06/27 09:46:18;;;;;;;10.02;6.85;;;;;;;20.61;68.67;101503.78;5022915;28;20113;-79
2022/06/27 09:48:45;;;;;;;9.73;5.40;;;;;;;20.85;66.22;101505.69;4999928;28;20017;-80
2022/06/27 09:51:15;;;;;;;9.55;6.45;;;;;;;21.00;68.35;101502.34;5013064;28;20474;-80
2022/06/27 09:53:44;;;;;;;11.05;5.03;;;;;;;21.01;64.25;101494.16;5020303;28;20495;-80
2022/06/27 09:56:13;;;;;;;9.73;5.53;;;;;;;20.92;63.77;101505.84;5004926;28;20083;-80
2022/06/27 09:58:41;;;;;;;8.80;4.70;;;;;;;20.94;63.53;101493.16;5000440;28;20033;-80
2022/06/27 10:01:08;;;;;;;9.88;5.45;;;;;;;20.93;66.03;101499.50;4999799;28;20105;-80
2022/06/27 10:03:35;;;;;;;8.32;4.88;;;;;;;21.04;65.00;101487.63;5000823;28;20017;-81
2022/06/27 10:06:01;;;;;;;8.65;6.07;;;;;;;20.82;65.31;101487.28;5018480;28;20037;-81
2022/06/27 10:08:26;;;;;;;9.48;6.07;;;;;;;20.95;65.07;101484.13;5013771;28;20025;-81
2022/06/27 10:11:19;;;;;;;10.30;7.07;;;;;;;21.09;67.16;101480.78;5021888;28;20164;-81
2022/06/27 10:14:14;;;;;;;13.48;7.13;;;;;;;21.11;66.43;101483.28;5002096;28;20034;-81
2022/06/27 10:17:00;;;;;;;10.32;6.50;;;;;;;21.22;65.01;101475.78;5003675;28;20040;-81
2022/06/27 10:19:31;;;;;;;8.90;6.22;;;;;;;21.30;65.18;101469.63;5005203;28;20038;-81
2022/06/27 10:22:01;;;;;;;9.85;4.88;;;;;;;21.35;63.62;101480.66;5002896;28;20414;-81
2022/06/27 10:24:29;;;;;;;8.80;7.07;;;;;;;21.41;63.22;101473.78;5003657;28;20022;-81
2022/06/27 10:27:00;;;;;;;12.18;6.70;;;;;;;21.47;60.91;101467.75;5002904;28;20029;-81
2022/06/27 10:29:37;;;;;;;11.05;6.80;;;;;;;21.54;64.24;101476.78;5001521;28;20474;-82
2022/06/27 10:32:05;;;;;;;9.55;6.47;;;;;;;21.43;60.58;101483.31;5001292;28;20033;-82
2022/06/27 10:34:39;;;;;;;10.38;5.70;;;;;;;21.56;64.00;101482.78;5003949;28;20018;-85
2022/06/27 10:37:26;;;;;;;9.70;5.72;;;;;;;21.53;63.40;101483.97;5003471;28;20033;-79
2022/06/27 10:40:11;;;;;;;8.13;5.80;;;;;;;21.39;60.97;101479.31;5004957;28;20025;-80
2022/06/27 10:42:50;;;;;;;9.93;5.57;;;;;;;21.35;62.58;101491.34;4998241;28;20018;-81
2022/06/27 10:45:31;;;;;;;10.20;5.72;;;;;;;21.26;63.98;101495.88;5003776;28;20075;-79
2022/06/27 10:47:59;;;;;;;10.00;6.07;;;;;;;21.14;63.05;101486.47;5010658;28;20032;-81
2022/06/27 10:50:26;;;;;;;8.48;6.45;;;;;;;21.00;63.27;101484.44;5017055;28;20037;-81
2022/06/27 10:53:19;;;;;;;11.95;6.55;;;;;;;21.10;64.86;101492.31;5003899;28;20026;-81
2022/06/27 10:55:45;;;;;;;10.15;6.40;;;;;;;21.01;63.61;101478.09;5005128;28;20021;-81
2022/06/27 10:58:31;;;;;;;9.20;5.72;;;;;;;20.99;65.56;101493.47;4999738;28;20374;-81
2022/06/27 11:01:12;;;;;;;7.40;4.50;;;;;;;20.88;64.88;101494.66;5001210;28;20041;-81
2022/06/27 11:03:39;;;;;;;7.97;3.95;;;;;;;20.89;63.72;101498.16;5003613;28;20020;-81
2022/06/27 11:06:05;;;;;;;5.80;2.80;;;;;;;20.90;61.72;101486.47;5002617;28;20026;-81
2022/06/27 11:08:37;;;;;;;7.28;3.33;;;;;;;20.94;63.20;101490.47;5001305;28;20014;-81
2022/06/27 11:11:05;;;;;;;7.80;3.20;;;;;;;21.00;61.95;101491.66;5007867;28;20026;-81
2022/06/27 11:13:54;;;;;;;6.80;2.55;;;;;;;21.10;62.12;101498.50;5002589;28;20025;-81
2022/06/27 11:16:23;;;;;;;9.77;2.47;;;;;;;21.05;60.27;101495.50;5000375;28;20410;-82
2022/06/27 11:18:53;;;;;;;6.57;2.92;;;;;;;21.12;59.63;101501.84;5002772;28;20825;-81
2022/06/27 11:21:20;;;;;;;7.85;3.08;;;;;;;21.07;60.17;101501.50;5006264;28;20061;-81